sensor_id;sensor_type;location;lat;lon;timestamp;P1;durP1;ratioP1;P2;durP2;ratioP2
35877;SDS011;21982;49.804;24.072;2022-09-09T00:02:22;24.40;;;11.10;;
35877;SDS011;21982;49.804;24.072;2022-09-09T00:10:32;22.55;;;12.02;;
35877;SDS011;21982;49.804;24.072;2022-09-09T00:23:28;22.55;;;10.63;;
35877;SDS011;21982;49.804;24.072;2022-09-09T00:26:19;19.73;;;10.48;;
35877;SDS011;21982;49.804;24.072;2022-09-09T00:28:58;21.05;;;11.60;;
35877;SDS011;21982;49.804;24.072;2022-09-09T00:31:30;20.20;;;10.38;;
35877;SDS011;21982;49.804;24.072;2022-09-09T00:33:59;21.58;;;12.48;;
35877;SDS011;21982;49.804;24.072;2022-09-09T00:36:40;19.83;;;10.60;;
35877;SDS011;21982;49.804;24.072;2022-09-09T00:39:11;21.08;;;11.68;;
35877;SDS011;21982;49.804;24.072;2022-09-09T00:42:03;21.17;;;10.90;;
35877;SDS011;21982;49.804;24.072;2022-09-09T00:47:46;21.70;;;10.52;;
35877;SDS011;21982;49.804;24.072;2022-09-09T01:02:18;19.40;;;11.75;;
35877;SDS011;21982;49.804;24.072;2022-09-09T01:05:15;22.90;;;10.02;;
35877;SDS011;21982;49.804;24.072;2022-09-09T01:07:52;16.55;;;9.02;;
35877;SDS011;21982;49.804;24.072;2022-09-09T01:13:09;16.83;;;8.98;;
35877;SDS011;21982;49.804;24.072;2022-09-09T01:15:42;19.30;;;9.40;;
35877;SDS011;21982;49.804;24.072;2022-09-09T01:18:12;20.30;;;10.10;;
35877;SDS011;21982;49.804;24.072;2022-09-09T01:26:04;21.02;;;9.80;;
35877;SDS011;21982;49.804;24.072;2022-09-09T01:28:51;17.50;;;8.93;;
35877;SDS011;21982;49.804;24.072;2022-09-09T01:31:28;12.98;;;8.45;;
35877;SDS011;21982;49.804;24.072;2022-09-09T01:33:58;15.55;;;7.53;;
35877;SDS011;21982;49.804;24.072;2022-09-09T01:38:49;14.75;;;8.23;;
35877;SDS011;21982;49.804;24.072;2022-09-09T01:41:17;13.55;;;7.80;;
35877;SDS011;21982;49.804;24.072;2022-09-09T01:43:43;19.27;;;9.60;;
35877;SDS011;21982;49.804;24.072;2022-09-09T01:46:09;13.40;;;8.15;;
35877;SDS011;21982;49.804;24.072;2022-09-09T01:48:36;14.40;;;7.57;;
35877;SDS011;21982;49.804;24.072;2022-09-09T01:51:02;19.75;;;9.30;;
35877;SDS011;21982;49.804;24.072;2022-09-09T01:53:28;13.45;;;8.05;;
35877;SDS011;21982;49.804;24.072;2022-09-09T01:59:07;16.83;;;7.70;;
35877;SDS011;21982;49.804;24.072;2022-09-09T02:01:57;15.77;;;7.93;;
35877;SDS011;21982;49.804;24.072;2022-09-09T02:07:06;13.88;;;7.18;;
35877;SDS011;21982;49.804;24.072;2022-09-09T02:09:44;15.75;;;8.57;;
35877;SDS011;21982;49.804;24.072;2022-09-09T02:12:18;14.85;;;6.90;;
35877;SDS011;21982;49.804;24.072;2022-09-09T02:14:47;12.00;;;7.35;;
35877;SDS011;21982;49.804;24.072;2022-09-09T02:17:22;13.55;;;7.15;;
35877;SDS011;21982;49.804;24.072;2022-09-09T02:19:56;12.68;;;7.68;;
35877;SDS011;21982;49.804;24.072;2022-09-09T02:22:29;10.85;;;6.10;;
35877;SDS011;21982;49.804;24.072;2022-09-09T02:25:02;16.02;;;7.22;;
35877;SDS011;21982;49.804;24.072;2022-09-09T02:27:33;13.02;;;6.55;;
35877;SDS011;21982;49.804;24.072;2022-09-09T02:30:00;13.15;;;6.57;;
35877;SDS011;21982;49.804;24.072;2022-09-09T02:32:27;12.40;;;6.13;;
35877;SDS011;21982;49.804;24.072;2022-09-09T02:34:58;14.02;;;7.35;;
35877;SDS011;21982;49.804;24.072;2022-09-09T02:37:34;13.80;;;6.57;;
35877;SDS011;21982;49.804;24.072;2022-09-09T02:40:03;17.90;;;7.38;;
35877;SDS011;21982;49.804;24.072;2022-09-09T02:42:40;14.95;;;7.28;;
35877;SDS011;21982;49.804;24.072;2022-09-09T02:45:07;12.65;;;5.90;;
35877;SDS011;21982;49.804;24.072;2022-09-09T02:47:39;13.48;;;6.15;;
35877;SDS011;21982;49.804;24.072;2022-09-09T02:50:26;13.18;;;6.25;;
35877;SDS011;21982;49.804;24.072;2022-09-09T02:55:42;11.98;;;6.03;;
35877;SDS011;21982;49.804;24.072;2022-09-09T02:58:14;11.75;;;5.93;;
35877;SDS011;21982;49.804;24.072;2022-09-09T03:00:48;12.85;;;5.65;;
35877;SDS011;21982;49.804;24.072;2022-09-09T03:03:18;14.27;;;5.82;;
35877;SDS011;21982;49.804;24.072;2022-09-09T03:05:48;10.90;;;5.72;;
35877;SDS011;21982;49.804;24.072;2022-09-09T03:08:14;10.85;;;6.13;;
35877;SDS011;21982;49.804;24.072;2022-09-09T03:10:46;13.88;;;5.68;;
35877;SDS011;21982;49.804;24.072;2022-09-09T03:13:14;13.98;;;5.72;;
35877;SDS011;21982;49.804;24.072;2022-09-09T03:15:40;15.82;;;8.00;;
35877;SDS011;21982;49.804;24.072;2022-09-09T03:18:10;12.00;;;6.40;;
35877;SDS011;21982;49.804;24.072;2022-09-09T03:20:35;12.07;;;6.32;;
35877;SDS011;21982;49.804;24.072;2022-09-09T03:23:04;14.15;;;7.15;;
35877;SDS011;21982;49.804;24.072;2022-09-09T03:25:33;12.02;;;5.80;;
35877;SDS011;21982;49.804;24.072;2022-09-09T03:28:00;13.15;;;6.45;;
35877;SDS011;21982;49.804;24.072;2022-09-09T03:30:29;9.95;;;6.13;;
35877;SDS011;21982;49.804;24.072;2022-09-09T03:32:57;13.68;;;6.07;;
35877;SDS011;21982;49.804;24.072;2022-09-09T03:35:25;13.88;;;6.18;;
35877;SDS011;21982;49.804;24.072;2022-09-09T03:37:53;12.55;;;6.10;;
35877;SDS011;21982;49.804;24.072;2022-09-09T03:40:24;11.00;;;5.38;;
35877;SDS011;21982;49.804;24.072;2022-09-09T03:42:51;14.15;;;6.32;;
35877;SDS011;21982;49.804;24.072;2022-09-09T03:45:22;12.65;;;6.55;;
35877;SDS011;21982;49.804;24.072;2022-09-09T03:47:53;16.20;;;6.32;;
35877;SDS011;21982;49.804;24.072;2022-09-09T03:50:19;20.27;;;7.00;;
35877;SDS011;21982;49.804;24.072;2022-09-09T03:52:45;10.68;;;5.65;;
35877;SDS011;21982;49.804;24.072;2022-09-09T03:55:11;16.42;;;6.25;;
35877;SDS011;21982;49.804;24.072;2022-09-09T03:57:37;12.23;;;6.45;;
35877;SDS011;21982;49.804;24.072;2022-09-09T04:00:03;11.05;;;6.30;;
35877;SDS011;21982;49.804;24.072;2022-09-09T04:02:30;12.48;;;6.15;;
35877;SDS011;21982;49.804;24.072;2022-09-09T04:04:59;10.63;;;5.55;;
35877;SDS011;21982;49.804;24.072;2022-09-09T04:07:24;13.43;;;6.15;;
35877;SDS011;21982;49.804;24.072;2022-09-09T04:09:52;13.43;;;6.88;;
35877;SDS011;21982;49.804;24.072;2022-09-09T04:12:19;11.57;;;5.95;;
35877;SDS011;21982;49.804;24.072;2022-09-09T04:14:54;12.85;;;6.45;;
35877;SDS011;21982;49.804;24.072;2022-09-09T04:17:20;12.52;;;5.50;;
35877;SDS011;21982;49.804;24.072;2022-09-09T04:19:49;12.57;;;5.90;;
35877;SDS011;21982;49.804;24.072;2022-09-09T04:22:15;13.45;;;6.63;;
35877;SDS011;21982;49.804;24.072;2022-09-09T04:24:41;9.88;;;5.28;;
35877;SDS011;21982;49.804;24.072;2022-09-09T04:27:07;14.50;;;6.60;;
35877;SDS011;21982;49.804;24.072;2022-09-09T04:29:32;13.15;;;6.05;;
35877;SDS011;21982;49.804;24.072;2022-09-09T04:31:58;15.65;;;6.20;;
35877;SDS011;21982;49.804;24.072;2022-09-09T04:34:24;13.18;;;6.13;;
35877;SDS011;21982;49.804;24.072;2022-09-09T04:36:50;14.10;;;6.00;;
35877;SDS011;21982;49.804;24.072;2022-09-09T04:39:22;11.13;;;5.68;;
35877;SDS011;21982;49.804;24.072;2022-09-09T04:41:48;12.55;;;5.63;;
35877;SDS011;21982;49.804;24.072;2022-09-09T04:44:14;10.20;;;5.18;;
35877;SDS011;21982;49.804;24.072;2022-09-09T04:46:41;15.27;;;6.15;;
35877;SDS011;21982;49.804;24.072;2022-09-09T04:49:06;14.00;;;7.93;;
35877;SDS011;21982;49.804;24.072;2022-09-09T04:51:37;12.95;;;5.38;;
35877;SDS011;21982;49.804;24.072;2022-09-09T04:54:03;9.20;;;5.65;;
35877;SDS011;21982;49.804;24.072;2022-09-09T04:56:32;13.73;;;6.63;;
35877;SDS011;21982;49.804;24.072;2022-09-09T04:58:57;11.02;;;4.72;;
35877;SDS011;21982;49.804;24.072;2022-09-09T05:01:23;12.65;;;5.25;;
35877;SDS011;21982;49.804;24.072;2022-09-09T05:03:49;11.38;;;5.63;;
35877;SDS011;21982;49.804;24.072;2022-09-09T05:06:18;12.52;;;6.55;;
35877;SDS011;21982;49.804;24.072;2022-09-09T05:08:48;13.43;;;6.25;;
35877;SDS011;21982;49.804;24.072;2022-09-09T05:11:17;10.75;;;5.47;;
35877;SDS011;21982;49.804;24.072;2022-09-09T05:13:47;11.13;;;5.90;;
35877;SDS011;21982;49.804;24.072;2022-09-09T05:16:13;12.63;;;5.70;;
35877;SDS011;21982;49.804;24.072;2022-09-09T05:18:39;14.35;;;6.20;;
35877;SDS011;21982;49.804;24.072;2022-09-09T05:21:13;14.27;;;6.63;;
35877;SDS011;21982;49.804;24.072;2022-09-09T05:23:50;14.65;;;5.55;;
35877;SDS011;21982;49.804;24.072;2022-09-09T05:26:19;13.90;;;6.15;;
35877;SDS011;21982;49.804;24.072;2022-09-09T05:28:46;11.68;;;5.25;;
35877;SDS011;21982;49.804;24.072;2022-09-09T05:31:12;9.63;;;5.50;;
35877;SDS011;21982;49.804;24.072;2022-09-09T05:33:40;11.27;;;5.65;;
35877;SDS011;21982;49.804;24.072;2022-09-09T05:36:09;11.70;;;5.68;;
35877;SDS011;21982;49.804;24.072;2022-09-09T05:38:38;12.35;;;6.55;;
35877;SDS011;21982;49.804;24.072;2022-09-09T05:41:05;12.68;;;6.25;;
35877;SDS011;21982;49.804;24.072;2022-09-09T05:43:32;11.50;;;5.53;;
35877;SDS011;21982;49.804;24.072;2022-09-09T05:48:42;11.40;;;5.72;;
35877;SDS011;21982;49.804;24.072;2022-09-09T05:51:12;10.73;;;5.85;;
35877;SDS011;21982;49.804;24.072;2022-09-09T05:53:41;12.27;;;6.28;;
35877;SDS011;21982;49.804;24.072;2022-09-09T05:56:09;9.60;;;5.63;;
35877;SDS011;21982;49.804;24.072;2022-09-09T05:58:44;15.32;;;5.85;;
35877;SDS011;21982;49.804;24.072;2022-09-09T06:01:36;15.00;;;6.30;;
35877;SDS011;21982;49.804;24.072;2022-09-09T06:04:19;10.00;;;5.32;;
35877;SDS011;21982;49.804;24.072;2022-09-09T06:06:51;13.18;;;5.38;;
35877;SDS011;21982;49.804;24.072;2022-09-09T06:09:19;11.07;;;4.63;;
35877;SDS011;21982;49.804;24.072;2022-09-09T06:11:46;9.93;;;4.97;;
35877;SDS011;21982;49.804;24.072;2022-09-09T06:14:19;13.73;;;5.70;;
35877;SDS011;21982;49.804;24.072;2022-09-09T06:16:45;10.90;;;6.10;;
35877;SDS011;21982;49.804;24.072;2022-09-09T06:19:11;11.27;;;6.07;;
35877;SDS011;21982;49.804;24.072;2022-09-09T06:21:38;12.02;;;6.05;;
35877;SDS011;21982;49.804;24.072;2022-09-09T06:24:03;10.05;;;6.25;;
35877;SDS011;21982;49.804;24.072;2022-09-09T06:26:31;11.13;;;6.22;;
35877;SDS011;21982;49.804;24.072;2022-09-09T06:28:59;12.02;;;6.40;;
35877;SDS011;21982;49.804;24.072;2022-09-09T06:31:33;11.05;;;6.43;;
35877;SDS011;21982;49.804;24.072;2022-09-09T06:34:10;13.50;;;7.18;;
35877;SDS011;21982;49.804;24.072;2022-09-09T06:36:37;10.63;;;6.28;;
35877;SDS011;21982;49.804;24.072;2022-09-09T06:39:06;11.95;;;6.85;;
35877;SDS011;21982;49.804;24.072;2022-09-09T06:41:35;13.70;;;7.30;;
35877;SDS011;21982;49.804;24.072;2022-09-09T06:44:03;16.70;;;7.57;;
35877;SDS011;21982;49.804;24.072;2022-09-09T06:46:30;15.20;;;6.85;;
35877;SDS011;21982;49.804;24.072;2022-09-09T06:48:58;16.05;;;7.38;;
35877;SDS011;21982;49.804;24.072;2022-09-09T06:51:29;12.50;;;6.72;;
35877;SDS011;21982;49.804;24.072;2022-09-09T06:56:34;17.38;;;9.00;;
35877;SDS011;21982;49.804;24.072;2022-09-09T06:59:01;15.15;;;6.95;;
35877;SDS011;21982;49.804;24.072;2022-09-09T07:01:30;14.48;;;7.50;;
35877;SDS011;21982;49.804;24.072;2022-09-09T07:04:02;13.95;;;7.30;;
35877;SDS011;21982;49.804;24.072;2022-09-09T07:06:30;14.60;;;8.88;;
35877;SDS011;21982;49.804;24.072;2022-09-09T07:08:58;15.23;;;8.52;;
35877;SDS011;21982;49.804;24.072;2022-09-09T07:11:33;14.07;;;7.78;;
35877;SDS011;21982;49.804;24.072;2022-09-09T07:14:12;15.40;;;8.02;;
35877;SDS011;21982;49.804;24.072;2022-09-09T07:16:39;15.15;;;8.02;;
35877;SDS011;21982;49.804;24.072;2022-09-09T07:19:09;17.05;;;8.50;;
35877;SDS011;21982;49.804;24.072;2022-09-09T07:21:43;13.52;;;6.90;;
35877;SDS011;21982;49.804;24.072;2022-09-09T07:24:12;16.88;;;9.27;;
35877;SDS011;21982;49.804;24.072;2022-09-09T07:26:38;12.55;;;6.63;;
35877;SDS011;21982;49.804;24.072;2022-09-09T07:29:05;13.63;;;7.18;;
35877;SDS011;21982;49.804;24.072;2022-09-09T07:31:32;10.88;;;7.55;;
35877;SDS011;21982;49.804;24.072;2022-09-09T07:34:01;17.17;;;7.63;;
35877;SDS011;21982;49.804;24.072;2022-09-09T07:36:31;12.68;;;6.38;;
35877;SDS011;21982;49.804;24.072;2022-09-09T07:39:05;11.80;;;6.97;;
35877;SDS011;21982;49.804;24.072;2022-09-09T07:41:36;13.57;;;6.85;;
35877;SDS011;21982;49.804;24.072;2022-09-09T07:44:06;14.60;;;7.35;;
35877;SDS011;21982;49.804;24.072;2022-09-09T07:46:34;13.00;;;6.50;;
35877;SDS011;21982;49.804;24.072;2022-09-09T07:49:00;14.63;;;7.47;;
35877;SDS011;21982;49.804;24.072;2022-09-09T07:51:28;15.07;;;7.07;;
35877;SDS011;21982;49.804;24.072;2022-09-09T07:53:59;15.05;;;6.97;;
35877;SDS011;21982;49.804;24.072;2022-09-09T07:56:27;14.50;;;7.13;;
35877;SDS011;21982;49.804;24.072;2022-09-09T07:58:54;13.20;;;6.50;;
35877;SDS011;21982;49.804;24.072;2022-09-09T08:01:35;14.48;;;7.60;;
35877;SDS011;21982;49.804;24.072;2022-09-09T08:04:07;11.15;;;7.25;;
35877;SDS011;21982;49.804;24.072;2022-09-09T08:06:35;15.05;;;7.68;;
35877;SDS011;21982;49.804;24.072;2022-09-09T08:09:04;14.57;;;7.85;;
35877;SDS011;21982;49.804;24.072;2022-09-09T08:11:34;14.20;;;8.15;;
35877;SDS011;21982;49.804;24.072;2022-09-09T08:14:01;12.00;;;6.60;;
35877;SDS011;21982;49.804;24.072;2022-09-09T08:16:28;14.65;;;7.47;;
35877;SDS011;21982;49.804;24.072;2022-09-09T08:18:58;13.38;;;7.03;;
35877;SDS011;21982;49.804;24.072;2022-09-09T08:21:29;15.77;;;7.90;;
35877;SDS011;21982;49.804;24.072;2022-09-09T08:23:57;14.45;;;7.15;;
35877;SDS011;21982;49.804;24.072;2022-09-09T08:26:38;12.00;;;6.55;;
35877;SDS011;21982;49.804;24.072;2022-09-09T08:29:07;14.45;;;7.88;;
35877;SDS011;21982;49.804;24.072;2022-09-09T08:31:39;13.80;;;7.75;;
35877;SDS011;21982;49.804;24.072;2022-09-09T08:34:10;13.70;;;8.90;;
35877;SDS011;21982;49.804;24.072;2022-09-09T08:36:38;13.82;;;7.82;;
35877;SDS011;21982;49.804;24.072;2022-09-09T08:39:09;15.57;;;8.23;;
35877;SDS011;21982;49.804;24.072;2022-09-09T08:49:49;15.85;;;7.72;;
35877;SDS011;21982;49.804;24.072;2022-09-09T08:52:38;16.63;;;7.55;;
35877;SDS011;21982;49.804;24.072;2022-09-09T08:57:35;12.55;;;7.57;;
35877;SDS011;21982;49.804;24.072;2022-09-09T09:00:02;13.27;;;7.25;;
35877;SDS011;21982;49.804;24.072;2022-09-09T09:06:18;14.60;;;6.75;;
35877;SDS011;21982;49.804;24.072;2022-09-09T09:08:33;13.55;;;7.70;;
35877;SDS011;21982;49.804;24.072;2022-09-09T09:11:12;26.58;;;19.17;;
35877;SDS011;21982;49.804;24.072;2022-09-09T09:19:34;15.48;;;7.82;;
35877;SDS011;21982;49.804;24.072;2022-09-09T09:28:10;13.23;;;8.38;;
35877;SDS011;21982;49.804;24.072;2022-09-09T09:31:05;17.55;;;13.30;;
35877;SDS011;21982;49.804;24.072;2022-09-09T09:36:41;20.20;;;10.45;;
35877;SDS011;21982;49.804;24.072;2022-09-09T09:39:26;22.83;;;12.48;;
35877;SDS011;21982;49.804;24.072;2022-09-09T09:42:09;16.40;;;9.27;;
35877;SDS011;21982;49.804;24.072;2022-09-09T09:44:40;17.48;;;8.25;;
35877;SDS011;21982;49.804;24.072;2022-09-09T09:47:14;20.13;;;9.43;;
35877;SDS011;21982;49.804;24.072;2022-09-09T09:49:57;18.10;;;9.00;;
35877;SDS011;21982;49.804;24.072;2022-09-09T09:52:28;17.10;;;10.27;;
35877;SDS011;21982;49.804;24.072;2022-09-09T09:55:03;20.73;;;8.85;;
35877;SDS011;21982;49.804;24.072;2022-09-09T09:57:39;20.80;;;9.90;;
35877;SDS011;21982;49.804;24.072;2022-09-09T10:02:42;15.52;;;9.80;;
35877;SDS011;21982;49.804;24.072;2022-09-09T10:05:20;18.42;;;8.82;;
35877;SDS011;21982;49.804;24.072;2022-09-09T10:08:14;16.92;;;9.45;;
35877;SDS011;21982;49.804;24.072;2022-09-09T10:13:42;15.48;;;9.63;;
35877;SDS011;21982;49.804;24.072;2022-09-09T10:22:32;19.98;;;9.75;;
35877;SDS011;21982;49.804;24.072;2022-09-09T10:27:57;15.00;;;7.80;;
35877;SDS011;21982;49.804;24.072;2022-09-09T10:36:23;17.45;;;9.82;;
35877;SDS011;21982;49.804;24.072;2022-09-09T10:38:57;15.57;;;8.65;;
35877;SDS011;21982;49.804;24.072;2022-09-09T10:41:37;15.07;;;8.98;;
35877;SDS011;21982;49.804;24.072;2022-09-09T10:52:28;16.10;;;10.25;;
35877;SDS011;21982;49.804;24.072;2022-09-09T10:55:22;18.90;;;9.35;;
35877;SDS011;21982;49.804;24.072;2022-09-09T10:57:56;16.15;;;9.35;;
35877;SDS011;21982;49.804;24.072;2022-09-09T11:00:32;16.48;;;9.93;;
35877;SDS011;21982;49.804;24.072;2022-09-09T11:03:05;16.92;;;10.10;;
35877;SDS011;21982;49.804;24.072;2022-09-09T11:05:41;18.65;;;10.43;;
35877;SDS011;21982;49.804;24.072;2022-09-09T11:18:50;19.48;;;10.70;;
35877;SDS011;21982;49.804;24.072;2022-09-09T11:21:37;16.45;;;9.40;;
35877;SDS011;21982;49.804;24.072;2022-09-09T11:24:31;18.80;;;11.18;;
35877;SDS011;21982;49.804;24.072;2022-09-09T11:36:16;20.42;;;11.18;;
35877;SDS011;21982;49.804;24.072;2022-09-09T11:40:45;17.70;;;10.70;;
35877;SDS011;21982;49.804;24.072;2022-09-09T11:43:12;19.73;;;10.93;;
35877;SDS011;21982;49.804;24.072;2022-09-09T11:45:41;16.38;;;10.93;;
35877;SDS011;21982;49.804;24.072;2022-09-09T11:53:30;19.33;;;11.60;;
35877;SDS011;21982;49.804;24.072;2022-09-09T11:58:31;18.67;;;11.50;;
35877;SDS011;21982;49.804;24.072;2022-09-09T12:01:12;19.60;;;11.82;;
35877;SDS011;21982;49.804;24.072;2022-09-09T12:04:05;17.98;;;12.43;;
35877;SDS011;21982;49.804;24.072;2022-09-09T12:09:23;17.00;;;11.40;;
35877;SDS011;21982;49.804;24.072;2022-09-09T12:12:50;17.27;;;11.57;;
35877;SDS011;21982;49.804;24.072;2022-09-09T12:17:25;17.52;;;12.00;;
35877;SDS011;21982;49.804;24.072;2022-09-09T12:20:02;22.85;;;11.70;;
35877;SDS011;21982;49.804;24.072;2022-09-09T12:25:44;18.88;;;10.43;;
35877;SDS011;21982;49.804;24.072;2022-09-09T12:34:10;17.75;;;10.68;;
35877;SDS011;21982;49.804;24.072;2022-09-09T12:36:39;18.90;;;10.82;;
35877;SDS011;21982;49.804;24.072;2022-09-09T12:39:16;17.38;;;10.50;;
35877;SDS011;21982;49.804;24.072;2022-09-09T12:41:50;15.90;;;9.45;;
35877;SDS011;21982;49.804;24.072;2022-09-09T12:44:23;17.75;;;9.50;;
35877;SDS011;21982;49.804;24.072;2022-09-09T12:46:50;17.77;;;10.25;;
35877;SDS011;21982;49.804;24.072;2022-09-09T12:49:23;17.75;;;11.23;;
35877;SDS011;21982;49.804;24.072;2022-09-09T12:52:04;17.38;;;11.95;;
35877;SDS011;21982;49.804;24.072;2022-09-09T12:54:35;18.50;;;10.27;;
35877;SDS011;21982;49.804;24.072;2022-09-09T12:57:01;18.80;;;11.18;;
35877;SDS011;21982;49.804;24.072;2022-09-09T12:59:35;18.10;;;10.50;;
35877;SDS011;21982;49.804;24.072;2022-09-09T13:02:11;18.17;;;10.48;;
35877;SDS011;21982;49.804;24.072;2022-09-09T13:04:49;17.17;;;10.30;;
35877;SDS011;21982;49.804;24.072;2022-09-09T13:07:19;16.45;;;10.57;;
35877;SDS011;21982;49.804;24.072;2022-09-09T13:09:47;18.33;;;11.35;;
35877;SDS011;21982;49.804;24.072;2022-09-09T13:12:32;16.92;;;10.93;;
35877;SDS011;21982;49.804;24.072;2022-09-09T13:14:58;16.83;;;11.18;;
35877;SDS011;21982;49.804;24.072;2022-09-09T13:17:24;18.65;;;10.88;;
35877;SDS011;21982;49.804;24.072;2022-09-09T13:22:30;16.08;;;10.80;;
35877;SDS011;21982;49.804;24.072;2022-09-09T13:25:06;17.42;;;11.23;;
35877;SDS011;21982;49.804;24.072;2022-09-09T13:27:50;20.83;;;11.43;;
35877;SDS011;21982;49.804;24.072;2022-09-09T13:32:59;16.27;;;10.75;;
35877;SDS011;21982;49.804;24.072;2022-09-09T13:35:47;17.40;;;10.35;;
35877;SDS011;21982;49.804;24.072;2022-09-09T13:38:20;15.88;;;10.10;;
35877;SDS011;21982;49.804;24.072;2022-09-09T13:43:34;20.77;;;11.65;;
35877;SDS011;21982;49.804;24.072;2022-09-09T13:46:05;18.58;;;11.15;;
35877;SDS011;21982;49.804;24.072;2022-09-09T13:51:46;22.98;;;13.18;;
35877;SDS011;21982;49.804;24.072;2022-09-09T13:54:15;20.10;;;13.02;;
35877;SDS011;21982;49.804;24.072;2022-09-09T13:56:42;24.02;;;13.20;;
35877;SDS011;21982;49.804;24.072;2022-09-09T13:59:15;18.05;;;12.07;;
35877;SDS011;21982;49.804;24.072;2022-09-09T14:01:43;18.83;;;12.05;;
35877;SDS011;21982;49.804;24.072;2022-09-09T14:04:09;16.90;;;11.40;;
35877;SDS011;21982;49.804;24.072;2022-09-09T14:06:35;15.27;;;9.93;;
35877;SDS011;21982;49.804;24.072;2022-09-09T14:09:05;16.85;;;10.52;;
35877;SDS011;21982;49.804;24.072;2022-09-09T14:11:34;16.02;;;10.32;;
35877;SDS011;21982;49.804;24.072;2022-09-09T14:14:00;18.92;;;11.68;;
35877;SDS011;21982;49.804;24.072;2022-09-09T14:16:32;18.63;;;11.27;;
35877;SDS011;21982;49.804;24.072;2022-09-09T14:18:57;22.20;;;12.55;;
35877;SDS011;21982;49.804;24.072;2022-09-09T14:21:24;22.67;;;13.57;;
35877;SDS011;21982;49.804;24.072;2022-09-09T14:23:55;22.05;;;13.95;;
35877;SDS011;21982;49.804;24.072;2022-09-09T14:26:23;18.58;;;12.55;;
35877;SDS011;21982;49.804;24.072;2022-09-09T14:28:49;22.25;;;13.70;;
35877;SDS011;21982;49.804;24.072;2022-09-09T14:31:16;18.15;;;13.18;;
35877;SDS011;21982;49.804;24.072;2022-09-09T14:33:43;21.45;;;13.63;;
35877;SDS011;21982;49.804;24.072;2022-09-09T14:36:09;22.90;;;14.73;;
35877;SDS011;21982;49.804;24.072;2022-09-09T14:38:36;21.25;;;13.60;;
35877;SDS011;21982;49.804;24.072;2022-09-09T14:41:07;21.08;;;14.07;;
35877;SDS011;21982;49.804;24.072;2022-09-09T14:43:37;18.20;;;11.85;;
35877;SDS011;21982;49.804;24.072;2022-09-09T14:46:06;20.17;;;13.60;;
35877;SDS011;21982;49.804;24.072;2022-09-09T14:48:33;23.15;;;15.68;;
35877;SDS011;21982;49.804;24.072;2022-09-09T14:51:13;25.70;;;15.65;;
35877;SDS011;21982;49.804;24.072;2022-09-09T14:53:41;21.27;;;14.35;;
35877;SDS011;21982;49.804;24.072;2022-09-09T14:56:26;27.42;;;16.85;;
35877;SDS011;21982;49.804;24.072;2022-09-09T14:58:55;27.60;;;18.10;;
35877;SDS011;21982;49.804;24.072;2022-09-09T15:01:22;26.40;;;18.15;;
35877;SDS011;21982;49.804;24.072;2022-09-09T15:03:52;24.63;;;16.95;;
35877;SDS011;21982;49.804;24.072;2022-09-09T15:06:20;27.55;;;17.25;;
35877;SDS011;21982;49.804;24.072;2022-09-09T15:08:46;26.13;;;16.58;;
35877;SDS011;21982;49.804;24.072;2022-09-09T15:11:13;24.98;;;16.65;;
35877;SDS011;21982;49.804;24.072;2022-09-09T15:13:40;27.00;;;17.55;;
35877;SDS011;21982;49.804;24.072;2022-09-09T15:16:17;29.73;;;17.45;;
35877;SDS011;21982;49.804;24.072;2022-09-09T15:18:43;24.80;;;16.73;;
35877;SDS011;21982;49.804;24.072;2022-09-09T15:21:18;27.40;;;17.55;;
35877;SDS011;21982;49.804;24.072;2022-09-09T15:30:18;26.23;;;16.83;;
35877;SDS011;21982;49.804;24.072;2022-09-09T15:32:44;26.33;;;18.63;;
35877;SDS011;21982;49.804;24.072;2022-09-09T15:35:09;30.25;;;18.23;;
35877;SDS011;21982;49.804;24.072;2022-09-09T15:37:35;25.80;;;18.25;;
35877;SDS011;21982;49.804;24.072;2022-09-09T15:40:01;28.55;;;18.40;;
35877;SDS011;21982;49.804;24.072;2022-09-09T15:42:27;29.10;;;19.17;;
35877;SDS011;21982;49.804;24.072;2022-09-09T15:44:52;29.98;;;18.30;;
35877;SDS011;21982;49.804;24.072;2022-09-09T15:47:17;29.52;;;19.55;;
35877;SDS011;21982;49.804;24.072;2022-09-09T15:49:43;35.67;;;20.27;;
35877;SDS011;21982;49.804;24.072;2022-09-09T15:52:09;30.35;;;20.17;;
35877;SDS011;21982;49.804;24.072;2022-09-09T15:54:36;23.55;;;16.75;;
35877;SDS011;21982;49.804;24.072;2022-09-09T15:57:04;28.35;;;18.83;;
35877;SDS011;21982;49.804;24.072;2022-09-09T15:59:31;32.15;;;19.63;;
35877;SDS011;21982;49.804;24.072;2022-09-09T16:01:58;38.42;;;22.25;;
35877;SDS011;21982;49.804;24.072;2022-09-09T16:04:25;34.60;;;21.63;;
35877;SDS011;21982;49.804;24.072;2022-09-09T16:06:54;30.85;;;20.15;;
35877;SDS011;21982;49.804;24.072;2022-09-09T16:09:23;32.47;;;20.17;;
35877;SDS011;21982;49.804;24.072;2022-09-09T16:11:53;33.03;;;19.73;;
35877;SDS011;21982;49.804;24.072;2022-09-09T16:14:21;32.72;;;19.98;;
35877;SDS011;21982;49.804;24.072;2022-09-09T16:16:49;31.95;;;20.05;;
35877;SDS011;21982;49.804;24.072;2022-09-09T16:19:15;35.83;;;21.35;;
35877;SDS011;21982;49.804;24.072;2022-09-09T16:21:44;27.55;;;18.10;;
35877;SDS011;21982;49.804;24.072;2022-09-09T16:24:12;25.98;;;17.00;;
35877;SDS011;21982;49.804;24.072;2022-09-09T16:26:40;27.42;;;18.15;;
35877;SDS011;21982;49.804;24.072;2022-09-09T16:29:10;28.23;;;17.50;;
35877;SDS011;21982;49.804;24.072;2022-09-09T16:31:36;29.23;;;17.92;;
35877;SDS011;21982;49.804;24.072;2022-09-09T16:34:02;24.63;;;17.05;;
35877;SDS011;21982;49.804;24.072;2022-09-09T16:36:32;29.30;;;18.13;;
35877;SDS011;21982;49.804;24.072;2022-09-09T16:39:00;30.20;;;18.48;;
35877;SDS011;21982;49.804;24.072;2022-09-09T16:41:30;25.55;;;16.75;;
35877;SDS011;21982;49.804;24.072;2022-09-09T16:44:00;25.15;;;17.27;;
35877;SDS011;21982;49.804;24.072;2022-09-09T16:46:28;24.23;;;17.10;;
35877;SDS011;21982;49.804;24.072;2022-09-09T16:49:02;28.65;;;18.67;;
35877;SDS011;21982;49.804;24.072;2022-09-09T16:51:41;29.83;;;19.23;;
35877;SDS011;21982;49.804;24.072;2022-09-09T16:54:13;30.38;;;18.58;;
35877;SDS011;21982;49.804;24.072;2022-09-09T16:56:41;28.17;;;18.30;;
35877;SDS011;21982;49.804;24.072;2022-09-09T16:59:13;32.33;;;18.60;;
35877;SDS011;21982;49.804;24.072;2022-09-09T17:01:41;28.23;;;17.08;;
35877;SDS011;21982;49.804;24.072;2022-09-09T17:04:11;27.95;;;18.00;;
35877;SDS011;21982;49.804;24.072;2022-09-09T17:06:48;29.13;;;19.00;;
35877;SDS011;21982;49.804;24.072;2022-09-09T17:09:20;32.85;;;20.48;;
35877;SDS011;21982;49.804;24.072;2022-09-09T17:11:48;29.48;;;18.52;;
35877;SDS011;21982;49.804;24.072;2022-09-09T17:14:18;30.63;;;19.42;;
35877;SDS011;21982;49.804;24.072;2022-09-09T17:16:46;37.30;;;21.77;;
35877;SDS011;21982;49.804;24.072;2022-09-09T17:19:11;27.63;;;18.45;;
35877;SDS011;21982;49.804;24.072;2022-09-09T17:21:37;33.30;;;19.00;;
35877;SDS011;21982;49.804;24.072;2022-09-09T17:24:07;28.80;;;18.63;;
35877;SDS011;21982;49.804;24.072;2022-09-09T17:26:33;29.25;;;18.58;;
35877;SDS011;21982;49.804;24.072;2022-09-09T17:28:59;29.98;;;18.40;;
35877;SDS011;21982;49.804;24.072;2022-09-09T17:31:27;29.65;;;18.80;;
35877;SDS011;21982;49.804;24.072;2022-09-09T17:33:54;34.10;;;19.17;;